createdAt,value
2018-11-11T00:02:07.468Z,4.57
2018-11-11T00:04:36.174Z,3.83
2018-11-11T00:07:05.125Z,4.87
2018-11-11T00:09:33.780Z,3.53
2018-11-11T00:12:02.426Z,4.73
2018-11-11T00:14:31.060Z,4.90
2018-11-11T00:16:59.644Z,4.77
2018-11-11T00:19:28.342Z,4.70
2018-11-11T00:21:56.956Z,5.87
2018-11-11T00:24:25.580Z,3.97
2018-11-11T00:26:54.247Z,4.83
2018-11-11T00:29:22.874Z,5.13
2018-11-11T00:31:51.656Z,6.17
2018-11-11T00:34:20.288Z,4.90
2018-11-11T00:36:48.900Z,5.07
2018-11-11T00:39:17.569Z,4.90
2018-11-11T00:41:46.169Z,4.80
2018-11-11T00:44:14.929Z,4.90
2018-11-11T00:46:43.587Z,4.90
2018-11-11T00:49:12.208Z,5.40
2018-11-11T00:51:40.995Z,5.10
2018-11-11T00:54:09.648Z,4.80
2018-11-11T00:56:38.245Z,4.70
2018-11-11T00:59:07.264Z,4.73
2018-11-11T01:01:35.946Z,4.60
2018-11-11T01:04:05.054Z,5.00
2018-11-11T01:06:33.893Z,5.30
2018-11-11T01:09:02.556Z,3.83
2018-11-11T01:11:31.221Z,4.43
2018-11-11T01:13:59.835Z,5.60
2018-11-11T01:16:28.457Z,5.47
2018-11-11T01:18:57.100Z,4.87
2018-11-11T01:21:26.169Z,4.50
2018-11-11T01:23:54.839Z,4.67
2018-11-11T01:26:23.513Z,4.57
2018-11-11T01:28:52.209Z,5.60
2018-11-11T01:31:20.907Z,4.83
2018-11-11T01:33:49.571Z,4.77
2018-11-11T01:36:18.338Z,7.93
2018-11-11T01:38:47.039Z,4.10
2018-11-11T01:41:15.706Z,4.60
2018-11-11T01:43:44.408Z,4.93
2018-11-11T01:46:13.011Z,4.80
2018-11-11T01:48:41.646Z,3.87
2018-11-11T01:51:10.296Z,4.47
2018-11-11T01:53:38.970Z,4.73
2018-11-11T01:56:07.717Z,4.07
2018-11-11T01:58:36.380Z,3.87
2018-11-11T02:01:05.370Z,4.47
2018-11-11T02:03:34.004Z,3.83
2018-11-11T02:06:02.723Z,4.00
2018-11-11T02:08:31.354Z,3.70
2018-11-11T02:10:59.988Z,4.60
2018-11-11T02:13:28.748Z,4.33
2018-11-11T02:15:57.365Z,5.43
2018-11-11T02:18:26.006Z,5.50
2018-11-11T02:20:54.705Z,4.40
2018-11-11T02:23:23.357Z,3.90
2018-11-11T02:25:52.139Z,4.23
2018-11-11T02:28:20.753Z,3.90
2018-11-11T02:30:49.425Z,5.93
2018-11-11T02:33:18.062Z,4.10
2018-11-11T02:35:46.756Z,4.60
2018-11-11T02:38:15.397Z,3.43
2018-11-11T02:40:43.965Z,4.37
2018-11-11T02:43:12.629Z,4.53
2018-11-11T02:45:41.264Z,4.93
2018-11-11T02:48:09.938Z,3.97
2018-11-11T02:50:38.569Z,3.70
2018-11-11T02:53:07.216Z,3.93
2018-11-11T02:55:35.856Z,3.90
2018-11-11T02:58:04.539Z,4.07
2018-11-11T03:00:33.176Z,3.87
2018-11-11T03:03:01.842Z,3.83
2018-11-11T03:05:30.502Z,4.10
2018-11-11T03:07:59.159Z,4.17
2018-11-11T03:10:27.851Z,5.23
2018-11-11T03:12:56.510Z,4.73
2018-11-11T03:15:25.151Z,5.07
2018-11-11T03:17:53.945Z,4.80
2018-11-11T03:20:22.577Z,5.07
2018-11-11T03:22:51.225Z,4.57
2018-11-11T03:25:19.892Z,4.33
2018-11-11T03:27:48.520Z,3.67
2018-11-11T03:30:18.185Z,3.30
2018-11-11T03:32:46.920Z,3.97
2018-11-11T03:35:15.806Z,4.50
2018-11-11T03:37:45.368Z,6.60
2018-11-11T03:40:16.551Z,3.20
2018-11-11T03:42:45.532Z,4.17
2018-11-11T03:45:15.568Z,4.07
2018-11-11T03:47:45.273Z,3.20
2018-11-11T03:50:13.982Z,5.50
2018-11-11T03:52:43.023Z,3.20
2018-11-11T03:55:11.961Z,3.70
2018-11-11T03:57:40.595Z,3.90
2018-11-11T04:00:11.655Z,3.90
2018-11-11T04:02:40.380Z,4.03
2018-11-11T04:05:10.332Z,4.10
2018-11-11T04:07:39.260Z,3.30
2018-11-11T04:10:10.129Z,6.20
2018-11-11T04:12:39.089Z,4.23
2018-11-11T04:15:09.317Z,6.93
2018-11-11T04:17:38.518Z,5.27
2018-11-11T04:20:09.132Z,5.70
2018-11-11T04:22:37.830Z,6.20
2018-11-11T04:25:06.652Z,3.77
2018-11-11T04:27:35.418Z,2.83
2018-11-11T04:30:04.177Z,2.87
2018-11-11T04:32:32.824Z,4.13
2018-11-11T04:35:01.594Z,3.50
2018-11-11T04:37:30.212Z,4.50
2018-11-11T04:39:58.863Z,5.50
2018-11-11T04:42:27.548Z,5.00
2018-11-11T04:44:56.334Z,11.03
2018-11-11T04:47:25.251Z,6.93
2018-11-11T04:49:53.975Z,5.03
2018-11-11T04:52:22.744Z,3.67
2018-11-11T04:54:51.344Z,3.53
2018-11-11T04:57:19.995Z,5.27
2018-11-11T04:59:48.645Z,6.17
2018-11-11T05:02:17.252Z,5.93
2018-11-11T05:04:46.000Z,4.03
2018-11-11T05:07:14.553Z,4.83
2018-11-11T05:09:43.232Z,4.03
2018-11-11T05:12:11.888Z,3.80
2018-11-11T05:14:40.550Z,3.73
2018-11-11T05:17:09.176Z,6.10
2018-11-11T05:19:37.800Z,8.43
2018-11-11T05:22:07.182Z,5.57
2018-11-11T05:24:35.867Z,3.40
2018-11-11T05:27:04.742Z,4.63
2018-11-11T05:29:33.496Z,4.13
2018-11-11T05:32:02.128Z,4.73
2018-11-11T05:34:30.768Z,4.87
2018-11-11T05:36:59.465Z,5.07
2018-11-11T05:39:28.109Z,6.03
2018-11-11T05:41:56.744Z,5.87
2018-11-11T05:44:25.405Z,6.47
2018-11-11T05:46:54.028Z,7.20
2018-11-11T05:49:22.948Z,7.77
2018-11-11T05:51:51.631Z,3.80
2018-11-11T05:54:20.274Z,3.53
2018-11-11T05:56:48.967Z,4.00
2018-11-11T05:59:17.613Z,3.00
2018-11-11T06:01:46.297Z,5.50
2018-11-11T06:04:14.926Z,6.57
2018-11-11T06:06:43.637Z,6.50
2018-11-11T06:09:12.255Z,5.67
2018-11-11T06:11:40.925Z,5.30
2018-11-11T06:14:09.635Z,4.33
2018-11-11T06:16:38.294Z,4.33
2018-11-11T06:19:06.963Z,6.37
2018-11-11T06:21:35.597Z,4.60
2018-11-11T06:24:04.301Z,5.03
2018-11-11T06:26:32.966Z,3.43
2018-11-11T06:29:01.589Z,4.00
2018-11-11T06:31:30.236Z,6.77
2018-11-11T06:33:58.980Z,7.97
2018-11-11T06:36:27.603Z,7.27
2018-11-11T06:38:56.271Z,7.37
2018-11-11T06:41:24.897Z,7.67
2018-11-11T06:43:53.538Z,7.07
2018-11-11T06:46:22.172Z,5.63
2018-11-11T06:48:50.809Z,6.13
2018-11-11T06:51:19.472Z,8.13
2018-11-11T06:53:48.141Z,3.27
2018-11-11T06:56:16.769Z,4.43
2018-11-11T06:58:45.407Z,6.93
2018-11-11T07:01:14.082Z,4.87
2018-11-11T07:03:50.560Z,6.07
2018-11-11T07:06:19.341Z,2.87
2018-11-11T07:08:47.970Z,10.07
2018-11-11T07:11:17.316Z,7.63
2018-11-11T07:13:45.945Z,5.30
2018-11-11T07:16:14.776Z,8.00
2018-11-11T07:18:44.208Z,8.13
2018-11-11T07:21:12.849Z,7.40
2018-11-11T07:23:41.552Z,6.30
2018-11-11T07:26:10.212Z,6.60
2018-11-11T07:28:38.822Z,5.20
2018-11-11T07:31:07.950Z,4.57
2018-11-11T07:33:36.608Z,4.60
2018-11-11T07:36:05.796Z,5.40
2018-11-11T07:38:34.444Z,3.50
2018-11-11T07:41:03.111Z,9.40
2018-11-11T07:43:31.881Z,6.80
2018-11-11T07:46:00.513Z,3.83
2018-11-11T07:48:29.146Z,6.50
2018-11-11T07:50:57.831Z,6.73
2018-11-11T07:53:26.504Z,6.83
2018-11-11T07:55:55.283Z,4.97
2018-11-11T07:58:24.025Z,5.00
2018-11-11T08:00:52.725Z,11.33
2018-11-11T08:03:21.348Z,5.60
2018-11-11T08:05:49.920Z,6.47
2018-11-11T08:08:18.605Z,6.90
2018-11-11T08:10:58.538Z,10.80
2018-11-11T08:13:27.233Z,6.60
2018-11-11T08:15:55.998Z,8.00
2018-11-11T08:18:24.623Z,7.80
2018-11-11T08:20:53.283Z,4.63
2018-11-11T08:23:21.947Z,7.23
2018-11-11T08:25:50.639Z,9.97
2018-11-11T08:28:19.257Z,6.40
2018-11-11T08:30:47.894Z,8.60
2018-11-11T08:33:16.521Z,7.63
2018-11-11T08:35:45.129Z,6.13
2018-11-11T08:38:13.788Z,3.53
2018-11-11T08:40:42.640Z,9.10
2018-11-11T08:43:11.174Z,3.40
2018-11-11T08:45:39.874Z,5.23
2018-11-11T08:48:08.515Z,6.77
2018-11-11T08:50:37.157Z,4.30
2018-11-11T08:53:06.004Z,7.50
2018-11-11T08:55:34.703Z,3.50
2018-11-11T08:58:03.442Z,3.40
2018-11-11T09:00:32.035Z,6.80
2018-11-11T09:03:00.784Z,6.57
2018-11-11T09:05:29.424Z,5.33
2018-11-11T09:07:58.049Z,3.57
2018-11-11T09:10:26.711Z,6.83
2018-11-11T09:12:55.373Z,8.10
2018-11-11T09:15:24.264Z,8.87
2018-11-11T09:17:52.930Z,5.60
2018-11-11T09:20:21.581Z,3.43
2018-11-11T09:22:50.238Z,2.73
2018-11-11T09:25:19.183Z,4.73
2018-11-11T09:27:47.952Z,3.40
2018-11-11T09:30:16.651Z,2.70
2018-11-11T09:32:45.290Z,4.60
2018-11-11T09:35:13.993Z,4.80
2018-11-11T09:37:42.681Z,3.30
2018-11-11T09:40:12.388Z,3.30
2018-11-11T09:42:41.122Z,3.40
2018-11-11T09:45:11.654Z,4.33
2018-11-11T09:47:40.509Z,6.00
2018-11-11T09:50:11.277Z,3.23
2018-11-11T09:52:40.243Z,5.23
2018-11-11T09:55:09.884Z,3.60
2018-11-11T09:57:39.026Z,3.03
2018-11-11T10:00:17.241Z,2.87
2018-11-11T10:02:50.677Z,2.13
2018-11-11T10:05:54.793Z,2.77
2018-11-11T10:08:28.081Z,5.33
2018-11-11T10:11:04.397Z,3.60
2018-11-11T10:13:38.395Z,3.03
2018-11-11T10:16:11.894Z,2.83
2018-11-11T10:18:46.210Z,3.03
2018-11-11T10:21:21.396Z,3.97
2018-11-11T10:23:54.627Z,4.13
2018-11-11T10:26:28.603Z,6.50
2018-11-11T10:29:02.796Z,4.33
2018-11-11T10:31:38.329Z,3.43
2018-11-11T10:34:12.261Z,4.60
2018-11-11T10:36:46.229Z,4.33
2018-11-11T10:39:20.313Z,3.40
2018-11-11T10:41:59.908Z,2.50
2018-11-11T10:44:41.400Z,5.10
2018-11-11T10:47:14.622Z,2.40
2018-11-11T10:49:50.037Z,4.97
2018-11-11T10:52:18.684Z,10.87
2018-11-11T10:54:47.417Z,2.50
2018-11-11T10:57:16.064Z,3.53
2018-11-11T10:59:44.709Z,4.30
2018-11-11T11:02:19.395Z,3.40
2018-11-11T11:04:53.472Z,1.93
2018-11-11T11:07:22.122Z,5.30
2018-11-11T11:09:50.775Z,1.60
2018-11-11T11:12:19.429Z,3.80
2018-11-11T11:14:48.087Z,3.00
2018-11-11T11:17:16.760Z,4.03
2018-11-11T11:19:45.399Z,2.63
2018-11-11T11:22:14.060Z,5.23
2018-11-11T11:24:42.839Z,3.30
2018-11-11T11:27:11.561Z,2.90
2018-11-11T11:29:40.149Z,2.90
2018-11-11T11:32:08.871Z,2.47
2018-11-11T11:34:37.524Z,3.37
2018-11-11T11:37:06.183Z,3.03
2018-11-11T11:39:35.001Z,2.20
2018-11-11T11:42:03.661Z,2.40
2018-11-11T11:44:32.321Z,1.63
2018-11-11T11:47:00.958Z,3.67
2018-11-11T11:49:29.754Z,1.97
2018-11-11T11:51:58.442Z,4.00
2018-11-11T11:54:27.076Z,4.40
2018-11-11T11:56:55.963Z,6.20
2018-11-11T11:59:24.633Z,4.20
2018-11-11T12:01:53.366Z,3.20
2018-11-11T12:04:22.008Z,2.20
2018-11-11T12:06:50.664Z,4.70
2018-11-11T12:09:19.450Z,3.57
2018-11-11T12:11:48.065Z,3.70
2018-11-11T12:14:16.784Z,5.63
2018-11-11T12:16:45.566Z,3.30
2018-11-11T12:19:14.059Z,3.27
2018-11-11T12:21:42.723Z,3.20
2018-11-11T12:24:11.390Z,2.97
2018-11-11T12:26:40.015Z,2.93
2018-11-11T12:29:08.638Z,6.07
2018-11-11T12:31:37.449Z,2.73
2018-11-11T12:34:06.248Z,5.53
2018-11-11T12:36:34.912Z,3.10
2018-11-11T12:39:03.806Z,3.70
2018-11-11T12:41:32.468Z,2.57
2018-11-11T12:44:01.167Z,4.47
2018-11-11T12:46:29.846Z,2.50
2018-11-11T12:48:58.512Z,4.97
2018-11-11T12:51:27.137Z,6.30
2018-11-11T12:53:55.797Z,2.60
2018-11-11T12:56:24.491Z,2.33
2018-11-11T12:58:53.281Z,6.10
2018-11-11T13:01:21.951Z,4.40
2018-11-11T13:03:50.561Z,3.17
2018-11-11T13:06:19.232Z,3.70
2018-11-11T13:08:48.048Z,2.10
2018-11-11T13:11:16.722Z,4.70
2018-11-11T13:13:45.407Z,3.27
2018-11-11T13:16:13.997Z,3.23
2018-11-11T13:18:42.660Z,3.53
2018-11-11T13:21:11.297Z,3.73
2018-11-11T13:23:39.933Z,4.50
2018-11-11T13:26:08.670Z,5.50
2018-11-11T13:28:37.278Z,4.03
2018-11-11T13:31:06.306Z,4.67
2018-11-11T13:33:35.003Z,3.53
2018-11-11T13:36:03.773Z,8.07
2018-11-11T13:38:32.472Z,4.20
2018-11-11T13:41:01.092Z,3.30
2018-11-11T13:43:29.729Z,5.23
2018-11-11T13:45:58.386Z,3.50
2018-11-11T13:48:27.057Z,8.00
2018-11-11T13:50:55.828Z,5.63
2018-11-11T13:53:24.474Z,7.17
2018-11-11T13:55:53.164Z,6.80
2018-11-11T13:58:21.943Z,6.47
2018-11-11T14:00:50.650Z,4.70
2018-11-11T14:03:19.295Z,5.33
2018-11-11T14:05:47.901Z,6.23
2018-11-11T14:08:16.637Z,3.60
2018-11-11T14:10:45.351Z,7.03
2018-11-11T14:13:13.982Z,3.67
2018-11-11T14:15:42.602Z,5.93
2018-11-11T14:18:11.439Z,6.43
2018-11-11T14:20:39.960Z,8.27
2018-11-11T14:23:08.593Z,5.90
2018-11-11T14:25:37.279Z,4.43
2018-11-11T14:28:06.418Z,4.77
2018-11-11T14:30:35.113Z,6.20
2018-11-11T14:33:03.818Z,3.50
2018-11-11T14:35:32.473Z,5.40
2018-11-11T14:38:01.130Z,6.97
2018-11-11T14:40:30.546Z,7.20
2018-11-11T14:42:59.211Z,7.17
2018-11-11T14:45:28.029Z,12.03
2018-11-11T14:47:57.402Z,8.13
2018-11-11T14:50:26.492Z,6.27
2018-11-11T14:52:55.272Z,4.50
2018-11-11T14:55:25.302Z,15.47
2018-11-11T14:57:54.048Z,4.80
2018-11-11T15:00:26.838Z,5.80
2018-11-11T15:02:57.563Z,6.50
2018-11-11T15:05:26.260Z,7.73
2018-11-11T15:07:54.931Z,5.67
2018-11-11T15:10:23.552Z,6.13
2018-11-11T15:12:52.250Z,7.60
2018-11-11T15:15:21.978Z,5.03
2018-11-11T15:17:51.322Z,4.60
2018-11-11T15:20:20.058Z,5.50
2018-11-11T15:22:48.850Z,4.17
2018-11-11T15:25:18.742Z,6.17
2018-11-11T15:27:47.656Z,6.57
2018-11-11T15:30:18.643Z,8.53
2018-11-11T15:32:47.660Z,6.00
2018-11-11T15:35:16.348Z,5.20
2018-11-11T15:37:45.266Z,3.20
2018-11-11T15:40:18.903Z,6.03
2018-11-11T15:42:47.594Z,6.20
2018-11-11T15:45:17.651Z,5.10
2018-11-11T15:47:46.281Z,6.10
2018-11-11T15:50:17.665Z,7.20
2018-11-11T15:52:47.759Z,6.03
2018-11-11T15:55:17.190Z,5.60
2018-11-11T15:57:45.812Z,5.70
2018-11-11T16:00:23.059Z,8.57
2018-11-11T16:02:51.665Z,6.00
2018-11-11T16:05:20.837Z,6.60
2018-11-11T16:07:50.421Z,9.93
2018-11-11T16:10:20.436Z,6.40
2018-11-11T16:12:49.292Z,6.93
2018-11-11T16:15:20.248Z,4.77
2018-11-11T16:17:50.634Z,7.27
2018-11-11T16:20:20.729Z,7.47
2018-11-11T16:22:50.685Z,12.30
2018-11-11T16:25:19.358Z,10.00
2018-11-11T16:27:48.517Z,8.33
2018-11-11T16:30:18.848Z,10.27
2018-11-11T16:32:48.234Z,7.43
2018-11-11T16:35:18.056Z,7.43
2018-11-11T16:37:46.672Z,10.87
2018-11-11T16:40:17.517Z,8.40
2018-11-11T16:42:46.713Z,10.10
2018-11-11T16:45:17.854Z,8.70
2018-11-11T16:47:46.482Z,5.20
2018-11-11T16:50:20.225Z,14.33
2018-11-11T16:52:49.660Z,6.37
2018-11-11T16:55:19.675Z,7.43
2018-11-11T16:57:48.229Z,6.13
2018-11-11T17:00:18.349Z,8.87
2018-11-11T17:02:47.583Z,9.80
2018-11-11T17:05:18.687Z,5.73
2018-11-11T17:07:47.714Z,4.70
2018-11-11T17:10:24.268Z,8.40
2018-11-11T17:12:54.036Z,7.80
2018-11-11T17:15:25.192Z,6.77
2018-11-11T17:17:53.803Z,6.70
2018-11-11T17:20:23.314Z,6.53
2018-11-11T17:22:52.750Z,5.30
2018-11-11T17:25:22.526Z,7.37
2018-11-11T17:27:51.189Z,4.37
2018-11-11T17:30:24.161Z,5.40
2018-11-11T17:32:53.228Z,5.67
2018-11-11T17:35:21.966Z,7.40
2018-11-11T17:37:50.625Z,8.27
2018-11-11T17:40:22.034Z,5.80
2018-11-11T17:42:51.554Z,7.03
2018-11-11T17:45:20.369Z,8.63
2018-11-11T17:47:49.793Z,6.13
2018-11-11T17:50:20.909Z,5.67
2018-11-11T17:52:49.615Z,4.50
2018-11-11T17:55:19.639Z,8.93
2018-11-11T17:57:48.253Z,8.23
2018-11-11T18:00:18.277Z,6.30
2018-11-11T18:02:47.013Z,9.53
2018-11-11T18:05:17.132Z,9.33
2018-11-11T18:07:45.947Z,16.07
2018-11-11T18:10:16.766Z,12.80
2018-11-11T18:12:45.429Z,13.17
2018-11-11T18:15:19.405Z,15.27
2018-11-11T18:17:48.057Z,14.90
2018-11-11T18:20:21.188Z,17.13
2018-11-11T18:22:50.581Z,20.23
2018-11-11T18:25:19.235Z,22.40
2018-11-11T18:27:48.097Z,24.53
2018-11-11T18:30:20.508Z,23.50
2018-11-11T18:32:49.276Z,20.83
2018-11-11T18:35:18.550Z,20.40
2018-11-11T18:37:47.327Z,17.70
2018-11-11T18:40:17.502Z,17.70
2018-11-11T18:42:46.151Z,19.33
2018-11-11T18:45:17.008Z,19.97
2018-11-11T18:47:46.241Z,17.70
2018-11-11T18:50:17.520Z,16.30
2018-11-11T18:52:46.201Z,17.57
2018-11-11T18:55:14.867Z,17.40
2018-11-11T18:57:44.117Z,15.23
2018-11-11T19:00:16.137Z,13.80
2018-11-11T19:02:45.893Z,12.70
2018-11-11T19:05:15.545Z,7.23
2018-11-11T19:07:44.481Z,7.17
2018-11-11T19:10:16.572Z,6.53
2018-11-11T19:12:46.204Z,6.50
2018-11-11T19:15:15.808Z,4.97
2018-11-11T19:17:45.098Z,5.93
2018-11-11T19:20:14.971Z,2.90
2018-11-11T19:22:43.758Z,5.60
2018-11-11T19:25:14.553Z,5.70
2018-11-11T19:27:44.283Z,6.60
2018-11-11T19:30:14.143Z,6.87
2018-11-11T19:32:43.315Z,8.50
2018-11-11T19:35:12.884Z,7.50
2018-11-11T19:37:42.261Z,6.23
2018-11-11T19:40:13.472Z,5.77
2018-11-11T19:42:42.369Z,3.87
2018-11-11T19:45:12.269Z,6.67
2018-11-11T19:47:41.481Z,4.93
2018-11-11T19:50:11.966Z,6.00
2018-11-11T19:52:41.915Z,6.73
2018-11-11T19:55:11.516Z,4.13
2018-11-11T19:57:40.293Z,4.97
2018-11-11T20:00:11.423Z,4.20
2018-11-11T20:02:40.634Z,4.23
2018-11-11T20:05:11.073Z,5.10
2018-11-11T20:07:39.848Z,9.67
2018-11-11T20:10:10.687Z,5.80
2018-11-11T20:12:39.659Z,5.70
2018-11-11T20:15:11.924Z,3.17
2018-11-11T20:17:40.640Z,5.17
2018-11-11T20:20:12.230Z,4.00
2018-11-11T20:22:41.163Z,3.77
2018-11-11T20:25:10.888Z,6.80
2018-11-11T20:27:40.016Z,3.07
2018-11-11T20:30:13.119Z,4.20
2018-11-11T20:32:42.293Z,3.93
2018-11-11T20:35:12.578Z,6.03
2018-11-11T20:37:41.223Z,3.37
2018-11-11T20:40:12.141Z,3.67
2018-11-11T20:42:41.173Z,2.93
2018-11-11T20:45:10.733Z,4.23
2018-11-11T20:47:40.190Z,7.83
2018-11-11T20:50:12.073Z,4.90
2018-11-11T20:52:42.190Z,5.93
2018-11-11T20:55:11.484Z,5.43
2018-11-11T20:57:40.461Z,5.43
2018-11-11T21:00:11.337Z,8.33
2018-11-11T21:02:40.225Z,6.57
2018-11-11T21:05:10.933Z,5.07
2018-11-11T21:07:39.742Z,7.83
2018-11-11T21:10:11.155Z,5.50
2018-11-11T21:12:39.719Z,6.30
2018-11-11T21:15:10.549Z,5.93
2018-11-11T21:17:39.210Z,4.10
2018-11-11T21:20:09.397Z,10.03
2018-11-11T21:22:38.224Z,5.33
2018-11-11T21:25:07.395Z,5.47
2018-11-11T21:27:36.972Z,6.80
2018-11-11T21:30:07.979Z,5.97
2018-11-11T21:32:36.640Z,6.80
2018-11-11T21:35:05.249Z,5.70
2018-11-11T21:37:33.921Z,8.70
2018-11-11T21:40:03.601Z,6.77
2018-11-11T21:42:32.254Z,9.13
2018-11-11T21:45:00.873Z,8.90
2018-11-11T21:47:29.610Z,16.10
2018-11-11T21:49:58.217Z,14.17
2018-11-11T21:52:26.866Z,12.80
2018-11-11T21:54:55.560Z,15.37
2018-11-11T21:57:24.230Z,14.90
2018-11-11T21:59:52.924Z,17.97
2018-11-11T22:02:21.580Z,19.17
2018-11-11T22:04:50.219Z,17.03
2018-11-11T22:07:19.057Z,19.80
2018-11-11T22:09:47.724Z,25.97
2018-11-11T22:12:16.353Z,25.47
2018-11-11T22:14:45.022Z,22.50
2018-11-11T22:17:13.709Z,28.20
2018-11-11T22:19:42.370Z,34.00
2018-11-11T22:22:11.088Z,36.40
2018-11-11T22:24:39.733Z,39.03
2018-11-11T22:27:08.429Z,37.70
2018-11-11T22:29:37.187Z,52.93
2018-11-11T22:32:06.165Z,45.30
2018-11-11T22:34:34.807Z,48.13
2018-11-11T22:37:03.564Z,46.63
2018-11-11T22:39:32.215Z,49.63
2018-11-11T22:42:00.826Z,49.20
2018-11-11T22:44:29.607Z,52.20
2018-11-11T22:46:58.186Z,53.90
2018-11-11T22:49:26.825Z,52.57
2018-11-11T22:51:55.452Z,50.40
2018-11-11T22:54:24.107Z,49.03
2018-11-11T22:56:52.753Z,51.80
2018-11-11T22:59:21.352Z,49.67
2018-11-11T23:01:49.993Z,44.30
2018-11-11T23:04:18.692Z,48.57
2018-11-11T23:06:47.401Z,46.13
2018-11-11T23:09:16.042Z,48.13
2018-11-11T23:11:44.668Z,43.40
2018-11-11T23:14:13.388Z,42.40
2018-11-11T23:16:41.982Z,39.53
2018-11-11T23:19:10.633Z,40.07
2018-11-11T23:21:39.297Z,44.37
2018-11-11T23:24:07.991Z,33.63
2018-11-11T23:26:36.632Z,32.83
2018-11-11T23:29:05.328Z,35.33
2018-11-11T23:31:34.069Z,32.10
2018-11-11T23:34:02.684Z,30.37
2018-11-11T23:36:31.287Z,30.33
2018-11-11T23:38:59.941Z,28.70
2018-11-11T23:41:28.633Z,24.90
2018-11-11T23:43:57.244Z,29.97
2018-11-11T23:46:25.851Z,29.60
2018-11-11T23:48:54.502Z,28.67
2018-11-11T23:51:23.162Z,30.13
2018-11-11T23:53:51.817Z,31.30
2018-11-11T23:56:20.421Z,36.23
2018-11-11T23:58:49.089Z,30.00
